sensor_id;sensor_type;location;lat;lon;timestamp;pressure;altitude;pressure_sealevel;temperature;humidity
8140;BME280;4111;50.972;7.072;2023-05-07T00:02:26;101119.44;;;15.60;100.00
8140;BME280;4111;50.972;7.072;2023-05-07T00:04:53;101110.63;;;15.48;100.00
8140;BME280;4111;50.972;7.072;2023-05-07T00:07:19;101120.47;;;15.39;100.00
8140;BME280;4111;50.972;7.072;2023-05-07T00:09:46;101119.69;;;15.54;100.00
8140;BME280;4111;50.972;7.072;2023-05-07T00:12:12;101117.75;;;15.49;100.00
8140;BME280;4111;50.972;7.072;2023-05-07T00:14:38;101114.19;;;15.43;100.00
8140;BME280;4111;50.972;7.072;2023-05-07T00:17:05;101109.22;;;15.30;100.00
8140;BME280;4111;50.972;7.072;2023-05-07T00:19:31;101104.59;;;15.36;100.00
8140;BME280;4111;50.972;7.072;2023-05-07T00:21:58;101100.78;;;15.42;100.00
8140;BME280;4111;50.972;7.072;2023-05-07T00:24:24;101100.25;;;15.45;100.00
8140;BME280;4111;50.972;7.072;2023-05-07T00:26:51;101107.91;;;15.48;100.00
8140;BME280;4111;50.972;7.072;2023-05-07T00:29:22;101107.34;;;15.46;100.00
8140;BME280;4111;50.972;7.072;2023-05-07T00:31:49;101108.47;;;15.45;100.00
8140;BME280;4111;50.972;7.072;2023-05-07T00:34:16;101116.94;;;15.49;100.00
8140;BME280;4111;50.972;7.072;2023-05-07T00:36:42;101107.91;;;15.53;100.00
8140;BME280;4111;50.972;7.072;2023-05-07T00:39:09;101113.94;;;15.50;100.00
8140;BME280;4111;50.972;7.072;2023-05-07T00:41:35;101106.81;;;15.49;100.00
8140;BME280;4111;50.972;7.072;2023-05-07T00:44:01;101103.25;;;15.54;100.00
8140;BME280;4111;50.972;7.072;2023-05-07T00:46:30;101106.28;;;15.52;100.00
8140;BME280;4111;50.972;7.072;2023-05-07T00:48:57;101109.28;;;15.51;100.00
8140;BME280;4111;50.972;7.072;2023-05-07T00:51:25;101093.69;;;15.51;100.00
8140;BME280;4111;50.972;7.072;2023-05-07T00:53:53;101099.41;;;15.50;100.00
8140;BME280;4111;50.972;7.072;2023-05-07T00:56:21;101097.25;;;15.46;100.00
8140;BME280;4111;50.972;7.072;2023-05-07T00:58:49;101090.38;;;15.44;100.00
8140;BME280;4111;50.972;7.072;2023-05-07T01:01:15;101095.28;;;15.42;100.00
8140;BME280;4111;50.972;7.072;2023-05-07T01:03:43;101098.31;;;15.40;100.00
8140;BME280;4111;50.972;7.072;2023-05-07T01:06:10;101101.31;;;15.39;100.00
8140;BME280;4111;50.972;7.072;2023-05-07T01:08:39;101095.84;;;15.39;100.00
8140;BME280;4111;50.972;7.072;2023-05-07T01:11:07;101091.47;;;15.43;100.00
8140;BME280;4111;50.972;7.072;2023-05-07T01:13:35;101089.28;;;15.40;100.00
8140;BME280;4111;50.972;7.072;2023-05-07T01:16:03;101084.91;;;15.39;100.00
8140;BME280;4111;50.972;7.072;2023-05-07T01:18:30;101080.53;;;15.33;100.00
8140;BME280;4111;50.972;7.072;2023-05-07T01:20:58;101075.06;;;15.33;100.00
8140;BME280;4111;50.972;7.072;2023-05-07T01:23:25;101076.97;;;15.37;100.00
8140;BME280;4111;50.972;7.072;2023-05-07T01:25:53;101061.38;;;15.43;100.00
8140;BME280;4111;50.972;7.072;2023-05-07T01:28:20;101067.97;;;15.47;100.00
8140;BME280;4111;50.972;7.072;2023-05-07T01:30:54;101067.69;;;15.49;100.00
8140;BME280;4111;50.972;7.072;2023-05-07T01:33:23;101068.50;;;15.49;100.00
8140;BME280;4111;50.972;7.072;2023-05-07T01:35:53;101071.78;;;15.51;100.00
8140;BME280;4111;50.972;7.072;2023-05-07T01:38:23;101068.78;;;15.53;100.00
8140;BME280;4111;50.972;7.072;2023-05-07T01:40:50;101079.47;;;15.54;100.00
8140;BME280;4111;50.972;7.072;2023-05-07T01:43:17;101074.53;;;15.56;100.00
8140;BME280;4111;50.972;7.072;2023-05-07T01:45:44;101069.06;;;15.56;100.00
8140;BME280;4111;50.972;7.072;2023-05-07T01:48:12;101078.91;;;15.57;100.00
8140;BME280;4111;50.972;7.072;2023-05-07T01:50:41;101069.34;;;15.55;100.00
8140;BME280;4111;50.972;7.072;2023-05-07T01:53:09;101068.25;;;15.51;100.00
8140;BME280;4111;50.972;7.072;2023-05-07T01:55:35;101067.97;;;15.52;100.00
8140;BME280;4111;50.972;7.072;2023-05-07T01:58:03;101069.88;;;15.46;100.00
8140;BME280;4111;50.972;7.072;2023-05-07T02:00:30;101069.88;;;15.46;100.00
8140;BME280;4111;50.972;7.072;2023-05-07T02:02:58;101071.50;;;15.47;100.00
8140;BME280;4111;50.972;7.072;2023-05-07T02:05:24;101076.44;;;15.51;100.00
8140;BME280;4111;50.972;7.072;2023-05-07T02:07:51;101077.25;;;15.51;100.00
8140;BME280;4111;50.972;7.072;2023-05-07T02:10:18;101069.88;;;15.57;100.00
8140;BME280;4111;50.972;7.072;2023-05-07T02:12:45;101074.53;;;15.56;100.00
8140;BME280;4111;50.972;7.072;2023-05-07T02:15:11;101061.38;;;15.48;100.00
8140;BME280;4111;50.972;7.072;2023-05-07T02:18:00;101065.22;;;15.47;100.00
8140;BME280;4111;50.972;7.072;2023-05-07T02:20:27;101062.47;;;15.42;100.00
8140;BME280;4111;50.972;7.072;2023-05-07T02:22:54;101065.19;;;15.42;100.00
8140;BME280;4111;50.972;7.072;2023-05-07T02:25:20;101066.31;;;15.41;100.00
8140;BME280;4111;50.972;7.072;2023-05-07T02:27:47;101076.69;;;15.39;100.00
8140;BME280;4111;50.972;7.072;2023-05-07T02:30:14;101070.69;;;15.37;100.00
8140;BME280;4111;50.972;7.072;2023-05-07T02:32:41;101076.69;;;15.34;100.00
8140;BME280;4111;50.972;7.072;2023-05-07T02:35:07;101078.88;;;15.37;100.00
8140;BME280;4111;50.972;7.072;2023-05-07T02:37:34;101081.06;;;15.35;100.00
8140;BME280;4111;50.972;7.072;2023-05-07T02:40:01;101078.06;;;15.31;100.00
8140;BME280;4111;50.972;7.072;2023-05-07T02:42:27;101078.84;;;15.21;100.00
8140;BME280;4111;50.972;7.072;2023-05-07T02:44:54;101078.31;;;15.24;100.00
8140;BME280;4111;50.972;7.072;2023-05-07T02:47:20;101084.31;;;15.21;100.00
8140;BME280;4111;50.972;7.072;2023-05-07T02:49:47;101078.25;;;15.14;100.00
8140;BME280;4111;50.972;7.072;2023-05-07T02:52:13;101086.47;;;15.14;100.00
8140;BME280;4111;50.972;7.072;2023-05-07T02:54:40;101085.38;;;15.10;100.00
8140;BME280;4111;50.972;7.072;2023-05-07T02:57:06;101087.03;;;15.11;100.00
8140;BME280;4111;50.972;7.072;2023-05-07T02:59:32;101076.59;;;15.03;100.00
8140;BME280;4111;50.972;7.072;2023-05-07T03:01:59;101074.94;;;15.02;100.00
8140;BME280;4111;50.972;7.072;2023-05-07T03:04:25;101078.25;;;15.04;100.00
8140;BME280;4111;50.972;7.072;2023-05-07T03:06:52;101073.59;;;15.04;100.00
8140;BME280;4111;50.972;7.072;2023-05-07T03:09:18;101072.78;;;15.04;100.00
8140;BME280;4111;50.972;7.072;2023-05-07T03:11:45;101076.06;;;15.06;100.00
8140;BME280;4111;50.972;7.072;2023-05-07T03:14:12;101072.78;;;15.04;100.00
8140;BME280;4111;50.972;7.072;2023-05-07T03:16:39;101070.84;;;15.04;100.00
8140;BME280;4111;50.972;7.072;2023-05-07T03:19:05;101074.44;;;15.05;100.00
8140;BME280;4111;50.972;7.072;2023-05-07T03:21:32;101073.31;;;15.01;100.00
8140;BME280;4111;50.972;7.072;2023-05-07T03:24:00;101077.66;;;14.97;100.00
8140;BME280;4111;50.972;7.072;2023-05-07T03:26:26;101071.63;;;14.95;100.00
8140;BME280;4111;50.972;7.072;2023-05-07T03:28:54;101061.81;;;14.94;100.00
8140;BME280;4111;50.972;7.072;2023-05-07T03:31:21;101060.13;;;14.93;100.00
8140;BME280;4111;50.972;7.072;2023-05-07T03:33:56;101062.88;;;14.93;100.00
8140;BME280;4111;50.972;7.072;2023-05-07T03:36:23;101062.63;;;14.94;100.00
8140;BME280;4111;50.972;7.072;2023-05-07T03:38:50;101060.72;;;15.00;100.00
8140;BME280;4111;50.972;7.072;2023-05-07T03:41:16;101059.66;;;15.01;100.00
8140;BME280;4111;50.972;7.072;2023-05-07T03:43:43;101056.03;;;14.90;100.00
8140;BME280;4111;50.972;7.072;2023-05-07T03:46:09;101067.47;;;14.72;100.00
8140;BME280;4111;50.972;7.072;2023-05-07T03:48:36;101068.75;;;14.59;100.00
8140;BME280;4111;50.972;7.072;2023-05-07T03:51:02;101075.78;;;14.55;100.00
8140;BME280;4111;50.972;7.072;2023-05-07T03:53:29;101078.91;;;14.63;100.00
8140;BME280;4111;50.972;7.072;2023-05-07T03:55:55;101064.44;;;14.68;100.00
8140;BME280;4111;50.972;7.072;2023-05-07T03:58:22;101074.28;;;14.74;100.00
8140;BME280;4111;50.972;7.072;2023-05-07T04:00:48;101076.22;;;14.74;100.00
8140;BME280;4111;50.972;7.072;2023-05-07T04:03:15;101080.81;;;14.68;100.00
8140;BME280;4111;50.972;7.072;2023-05-07T04:05:42;101076.44;;;14.67;100.00
8140;BME280;4111;50.972;7.072;2023-05-07T04:08:08;101081.91;;;14.67;100.00
8140;BME280;4111;50.972;7.072;2023-05-07T04:10:34;101083.03;;;14.71;100.00
8140;BME280;4111;50.972;7.072;2023-05-07T04:13:01;101084.16;;;14.75;100.00
8140;BME280;4111;50.972;7.072;2023-05-07T04:15:27;101086.03;;;14.75;100.00
8140;BME280;4111;50.972;7.072;2023-05-07T04:17:54;101083.59;;;14.73;100.00
8140;BME280;4111;50.972;7.072;2023-05-07T04:20:20;101102.19;;;14.76;100.00
8140;BME280;4111;50.972;7.072;2023-05-07T04:22:47;101092.06;;;14.77;100.00
8140;BME280;4111;50.972;7.072;2023-05-07T04:25:13;101095.09;;;14.75;100.00
8140;BME280;4111;50.972;7.072;2023-05-07T04:27:40;101098.63;;;14.76;100.00
8140;BME280;4111;50.972;7.072;2023-05-07T04:30:07;101099.44;;;14.76;100.00
8140;BME280;4111;50.972;7.072;2023-05-07T04:32:34;101092.63;;;14.79;100.00
8140;BME280;4111;50.972;7.072;2023-05-07T04:35:00;101093.69;;;14.73;100.00
8140;BME280;4111;50.972;7.072;2023-05-07T04:37:27;101092.81;;;14.62;100.00
8140;BME280;4111;50.972;7.072;2023-05-07T04:39:53;101088.44;;;14.61;100.00
8140;BME280;4111;50.972;7.072;2023-05-07T04:42:20;101085.09;;;14.54;100.00
8140;BME280;4111;50.972;7.072;2023-05-07T04:44:46;101081.81;;;14.52;100.00
8140;BME280;4111;50.972;7.072;2023-05-07T04:47:12;101083.44;;;14.53;100.00
8140;BME280;4111;50.972;7.072;2023-05-07T04:49:39;101077.28;;;14.67;100.00
8140;BME280;4111;50.972;7.072;2023-05-07T04:52:06;101084.13;;;14.70;100.00
8140;BME280;4111;50.972;7.072;2023-05-07T04:54:32;101090.94;;;14.67;100.00
8140;BME280;4111;50.972;7.072;2023-05-07T04:56:58;101083.59;;;14.73;100.00
8140;BME280;4111;50.972;7.072;2023-05-07T04:59:25;101089.63;;;14.80;100.00
8140;BME280;4111;50.972;7.072;2023-05-07T05:01:51;101087.22;;;14.89;100.00
8140;BME280;4111;50.972;7.072;2023-05-07T05:04:18;101080.13;;;14.98;100.00
8140;BME280;4111;50.972;7.072;2023-05-07T05:06:45;101090.81;;;15.00;100.00
8140;BME280;4111;50.972;7.072;2023-05-07T05:09:11;101092.13;;;14.92;100.00
8140;BME280;4111;50.972;7.072;2023-05-07T05:11:38;101094.06;;;14.97;100.00
8140;BME280;4111;50.972;7.072;2023-05-07T05:14:05;101092.16;;;14.97;100.00
8140;BME280;4111;50.972;7.072;2023-05-07T05:16:31;101085.59;;;14.98;100.00
8140;BME280;4111;50.972;7.072;2023-05-07T05:18:59;101094.66;;;15.04;100.00
8140;BME280;4111;50.972;7.072;2023-05-07T05:21:25;101090.84;;;15.05;100.00
8140;BME280;4111;50.972;7.072;2023-05-07T05:23:52;101091.41;;;15.17;100.00
8140;BME280;4111;50.972;7.072;2023-05-07T05:26:19;101098.53;;;15.23;100.00
8140;BME280;4111;50.972;7.072;2023-05-07T05:28:47;101098.56;;;15.34;100.00
8140;BME280;4111;50.972;7.072;2023-05-07T05:31:14;101111.16;;;15.35;100.00
8140;BME280;4111;50.972;7.072;2023-05-07T05:33:40;101104.31;;;15.37;100.00
8140;BME280;4111;50.972;7.072;2023-05-07T05:36:09;101099.66;;;15.38;100.00
8140;BME280;4111;50.972;7.072;2023-05-07T05:38:36;101102.97;;;15.45;100.00
8140;BME280;4111;50.972;7.072;2023-05-07T05:41:02;101097.78;;;15.54;100.00
8140;BME280;4111;50.972;7.072;2023-05-07T05:43:30;101089.88;;;15.62;100.00
8140;BME280;4111;50.972;7.072;2023-05-07T05:45:56;101093.16;;;15.64;100.00
8140;BME280;4111;50.972;7.072;2023-05-07T05:48:23;101100.28;;;15.65;100.00
8140;BME280;4111;50.972;7.072;2023-05-07T05:50:50;101103.03;;;15.71;100.00
8140;BME280;4111;50.972;7.072;2023-05-07T05:53:16;101106.34;;;15.73;100.00
8140;BME280;4111;50.972;7.072;2023-05-07T05:55:43;101110.19;;;15.77;100.00
8140;BME280;4111;50.972;7.072;2023-05-07T05:58:10;101098.69;;;15.85;100.00
8140;BME280;4111;50.972;7.072;2023-05-07T06:00:36;101106.63;;;15.76;100.00
8140;BME280;4111;50.972;7.072;2023-05-07T06:03:03;101102.50;;;15.74;100.00
8140;BME280;4111;50.972;7.072;2023-05-07T06:05:29;101100.34;;;15.76;100.00
8140;BME280;4111;50.972;7.072;2023-05-07T06:07:56;101103.63;;;15.78;100.00
8140;BME280;4111;50.972;7.072;2023-05-07T06:10:22;101104.16;;;15.85;100.00
8140;BME280;4111;50.972;7.072;2023-05-07T06:12:50;101108.53;;;15.91;100.00
8140;BME280;4111;50.972;7.072;2023-05-07T06:15:16;101115.09;;;15.95;100.00
8140;BME280;4111;50.972;7.072;2023-05-07T06:17:43;101100.31;;;16.06;100.00
8140;BME280;4111;50.972;7.072;2023-05-07T06:20:10;101111.84;;;16.14;100.00
8140;BME280;4111;50.972;7.072;2023-05-07T06:22:37;101120.59;;;16.26;100.00
8140;BME280;4111;50.972;7.072;2023-05-07T06:25:03;101115.66;;;16.33;100.00
8140;BME280;4111;50.972;7.072;2023-05-07T06:27:30;101116.44;;;16.39;100.00
8140;BME280;4111;50.972;7.072;2023-05-07T06:29:56;101120.56;;;16.46;100.00
8140;BME280;4111;50.972;7.072;2023-05-07T06:32:23;101121.91;;;16.54;100.00
8140;BME280;4111;50.972;7.072;2023-05-07T06:34:49;101115.63;;;16.54;100.00
8140;BME280;4111;50.972;7.072;2023-05-07T06:37:16;101117.53;;;16.48;100.00
8140;BME280;4111;50.972;7.072;2023-05-07T06:39:42;101123.25;;;16.62;100.00
8140;BME280;4111;50.972;7.072;2023-05-07T06:42:08;101121.06;;;16.69;100.00
8140;BME280;4111;50.972;7.072;2023-05-07T06:44:35;101121.59;;;16.71;100.00
8140;BME280;4111;50.972;7.072;2023-05-07T06:47:01;101121.06;;;16.69;100.00
8140;BME280;4111;50.972;7.072;2023-05-07T06:49:28;101126.50;;;16.74;100.00
8140;BME280;4111;50.972;7.072;2023-05-07T06:51:54;101125.41;;;16.80;100.00
8140;BME280;4111;50.972;7.072;2023-05-07T06:54:22;101129.56;;;16.83;100.00
8140;BME280;4111;50.972;7.072;2023-05-07T06:56:49;101124.31;;;16.97;100.00
8140;BME280;4111;50.972;7.072;2023-05-07T06:59:16;101129.47;;;17.03;100.00
8140;BME280;4111;50.972;7.072;2023-05-07T07:01:42;101122.03;;;17.14;100.00
8140;BME280;4111;50.972;7.072;2023-05-07T07:04:09;101118.91;;;17.31;100.00
8140;BME280;4111;50.972;7.072;2023-05-07T07:06:36;101118.63;;;17.38;100.00
8140;BME280;4111;50.972;7.072;2023-05-07T07:09:02;101123.25;;;17.48;100.00
8140;BME280;4111;50.972;7.072;2023-05-07T07:11:28;101127.53;;;17.59;100.00
8140;BME280;4111;50.972;7.072;2023-05-07T07:13:55;101124.78;;;17.64;100.00
8140;BME280;4111;50.972;7.072;2023-05-07T07:16:21;101128.78;;;17.77;99.95
8140;BME280;4111;50.972;7.072;2023-05-07T07:18:48;101129.84;;;17.91;99.24
8140;BME280;4111;50.972;7.072;2023-05-07T07:21:14;101134.97;;;18.03;98.26
8140;BME280;4111;50.972;7.072;2023-05-07T07:23:41;101137.34;;;18.15;98.46
8140;BME280;4111;50.972;7.072;2023-05-07T07:26:07;101137.25;;;18.25;97.92
8140;BME280;4111;50.972;7.072;2023-05-07T07:28:34;101137.56;;;18.18;96.10
8140;BME280;4111;50.972;7.072;2023-05-07T07:31:00;101136.50;;;18.14;94.59
8140;BME280;4111;50.972;7.072;2023-05-07T07:33:27;101141.44;;;18.17;93.87
8140;BME280;4111;50.972;7.072;2023-05-07T07:35:55;101144.38;;;18.26;93.42
8140;BME280;4111;50.972;7.072;2023-05-07T07:38:21;101144.28;;;18.36;91.52
8140;BME280;4111;50.972;7.072;2023-05-07T07:40:47;101139.28;;;18.43;91.67
8140;BME280;4111;50.972;7.072;2023-05-07T07:43:14;101139.75;;;18.51;91.79
8140;BME280;4111;50.972;7.072;2023-05-07T07:45:41;101138.25;;;18.63;91.39
8140;BME280;4111;50.972;7.072;2023-05-07T07:48:08;101131.81;;;18.73;90.94
8140;BME280;4111;50.972;7.072;2023-05-07T07:50:34;101138.38;;;18.77;90.12
8140;BME280;4111;50.972;7.072;2023-05-07T07:53:10;101139.16;;;18.83;90.13
8140;BME280;4111;50.972;7.072;2023-05-07T07:55:40;101148.72;;;18.91;89.64
8140;BME280;4111;50.972;7.072;2023-05-07T07:58:07;101150.47;;;19.06;89.57
8140;BME280;4111;50.972;7.072;2023-05-07T08:00:33;101149.16;;;19.22;88.91
8140;BME280;4111;50.972;7.072;2023-05-07T08:03:00;101147.09;;;19.33;88.08
8140;BME280;4111;50.972;7.072;2023-05-07T08:05:27;101156.84;;;19.44;85.42
8140;BME280;4111;50.972;7.072;2023-05-07T08:07:54;101162.69;;;19.61;84.36
8140;BME280;4111;50.972;7.072;2023-05-07T08:10:21;101153.09;;;19.78;82.48
8140;BME280;4111;50.972;7.072;2023-05-07T08:12:51;101163.38;;;19.91;81.94
8140;BME280;4111;50.972;7.072;2023-05-07T08:15:17;101149.41;;;20.01;81.26
8140;BME280;4111;50.972;7.072;2023-05-07T08:17:44;101151.88;;;20.03;80.01
8140;BME280;4111;50.972;7.072;2023-05-07T08:20:10;101151.06;;;20.03;78.55
8140;BME280;4111;50.972;7.072;2023-05-07T08:22:37;101150.69;;;20.09;79.11
8140;BME280;4111;50.972;7.072;2023-05-07T08:25:04;101148.31;;;20.03;79.04
8140;BME280;4111;50.972;7.072;2023-05-07T08:27:31;101160.28;;;20.12;79.50
8140;BME280;4111;50.972;7.072;2023-05-07T08:29:57;101152.75;;;20.17;80.04
8140;BME280;4111;50.972;7.072;2023-05-07T08:32:23;101152.16;;;20.20;79.71
8140;BME280;4111;50.972;7.072;2023-05-07T08:34:50;101154.00;;;20.25;79.73
8140;BME280;4111;50.972;7.072;2023-05-07T08:37:17;101160.53;;;20.29;79.80
8140;BME280;4111;50.972;7.072;2023-05-07T08:39:43;101160.72;;;20.19;79.56
8140;BME280;4111;50.972;7.072;2023-05-07T08:42:11;101159.34;;;20.03;77.95
8140;BME280;4111;50.972;7.072;2023-05-07T08:44:39;101156.66;;;19.97;78.04
8140;BME280;4111;50.972;7.072;2023-05-07T08:47:07;101165.38;;;20.05;78.65
8140;BME280;4111;50.972;7.072;2023-05-07T08:49:34;101156.06;;;20.00;79.29
8140;BME280;4111;50.972;7.072;2023-05-07T08:52:01;101157.00;;;20.10;79.28
8140;BME280;4111;50.972;7.072;2023-05-07T08:54:28;101149.75;;;20.14;79.31
8140;BME280;4111;50.972;7.072;2023-05-07T08:56:55;101150.50;;;20.19;79.17
8140;BME280;4111;50.972;7.072;2023-05-07T08:59:21;101161.75;;;20.23;78.53
8140;BME280;4111;50.972;7.072;2023-05-07T09:01:48;101146.06;;;20.37;77.94
8140;BME280;4111;50.972;7.072;2023-05-07T09:04:15;101139.75;;;20.51;77.48
8140;BME280;4111;50.972;7.072;2023-05-07T09:06:42;101144.06;;;20.57;77.51
8140;BME280;4111;50.972;7.072;2023-05-07T09:09:08;101140.94;;;20.64;77.01
8140;BME280;4111;50.972;7.072;2023-05-07T09:11:35;101140.13;;;20.77;76.03
8140;BME280;4111;50.972;7.072;2023-05-07T09:14:01;101140.63;;;20.93;76.41
8140;BME280;4111;50.972;7.072;2023-05-07T09:16:30;101140.44;;;20.89;76.23
8140;BME280;4111;50.972;7.072;2023-05-07T09:23:07;101143.91;;;20.95;75.92
8140;BME280;4111;50.972;7.072;2023-05-07T09:25:36;101138.56;;;21.12;75.49
8140;BME280;4111;50.972;7.072;2023-05-07T09:28:04;101140.41;;;21.31;74.95
8140;BME280;4111;50.972;7.072;2023-05-07T09:30:31;101140.78;;;21.38;73.70
8140;BME280;4111;50.972;7.072;2023-05-07T09:32:59;101139.38;;;21.41;71.39
8140;BME280;4111;50.972;7.072;2023-05-07T09:35:26;101142.44;;;21.53;70.89
8140;BME280;4111;50.972;7.072;2023-05-07T09:37:55;101147.44;;;21.65;71.28
8140;BME280;4111;50.972;7.072;2023-05-07T09:40:26;101145.06;;;21.58;70.82
8140;BME280;4111;50.972;7.072;2023-05-07T09:42:54;101143.66;;;21.61;71.46
8140;BME280;4111;50.972;7.072;2023-05-07T09:45:27;101140.72;;;21.43;70.44
8140;BME280;4111;50.972;7.072;2023-05-07T09:47:58;101135.16;;;21.57;71.09
8140;BME280;4111;50.972;7.072;2023-05-07T09:50:29;101139.38;;;21.54;69.86
8140;BME280;4111;50.972;7.072;2023-05-07T09:52:56;101143.53;;;21.66;69.24
8140;BME280;4111;50.972;7.072;2023-05-07T09:55:23;101141.75;;;21.70;68.15
8140;BME280;4111;50.972;7.072;2023-05-07T09:57:51;101144.94;;;21.77;68.07
8140;BME280;4111;50.972;7.072;2023-05-07T10:00:20;101132.91;;;21.82;68.32
8140;BME280;4111;50.972;7.072;2023-05-07T10:02:52;101137.03;;;21.84;67.93
8140;BME280;4111;50.972;7.072;2023-05-07T10:05:19;101133.75;;;22.05;68.85
8140;BME280;4111;50.972;7.072;2023-05-07T10:07:47;101130.97;;;22.27;68.08
8140;BME280;4111;50.972;7.072;2023-05-07T10:10:14;101128.59;;;22.34;67.43
8140;BME280;4111;50.972;7.072;2023-05-07T10:12:44;101131.38;;;22.34;65.74
8140;BME280;4111;50.972;7.072;2023-05-07T10:15:11;101127.84;;;22.20;64.92
8140;BME280;4111;50.972;7.072;2023-05-07T10:17:39;101126.66;;;22.12;65.30
8140;BME280;4111;50.972;7.072;2023-05-07T10:20:07;101124.31;;;22.06;64.34
8140;BME280;4111;50.972;7.072;2023-05-07T10:22:42;101135.63;;;22.18;64.61
8140;BME280;4111;50.972;7.072;2023-05-07T10:25:20;101128.72;;;22.29;63.89
8140;BME280;4111;50.972;7.072;2023-05-07T10:27:48;101130.25;;;22.35;63.88
8140;BME280;4111;50.972;7.072;2023-05-07T10:30:41;101127.31;;;22.41;64.65
8140;BME280;4111;50.972;7.072;2023-05-07T10:33:13;101129.91;;;22.37;64.31
8140;BME280;4111;50.972;7.072;2023-05-07T10:35:43;101128.13;;;22.41;63.58
8140;BME280;4111;50.972;7.072;2023-05-07T10:38:10;101132.56;;;22.51;63.70
8140;BME280;4111;50.972;7.072;2023-05-07T10:40:37;101128.22;;;22.58;64.88
8140;BME280;4111;50.972;7.072;2023-05-07T10:43:04;101127.59;;;22.62;64.83
8140;BME280;4111;50.972;7.072;2023-05-07T10:45:34;101127.41;;;22.58;63.56
8140;BME280;4111;50.972;7.072;2023-05-07T10:48:14;101130.25;;;22.35;61.86
8140;BME280;4111;50.972;7.072;2023-05-07T10:51:18;101126.06;;;22.47;61.86
8140;BME280;4111;50.972;7.072;2023-05-07T10:53:45;101119.31;;;22.70;62.31
8140;BME280;4111;50.972;7.072;2023-05-07T10:58:44;101121.09;;;23.06;62.65
8140;BME280;4111;50.972;7.072;2023-05-07T11:01:11;101128.28;;;23.16;62.98
8140;BME280;4111;50.972;7.072;2023-05-07T11:04:34;101123.59;;;23.25;61.51
8140;BME280;4111;50.972;7.072;2023-05-07T11:15:11;101125.06;;;23.23;59.87
8140;BME280;4111;50.972;7.072;2023-05-07T11:17:55;101109.06;;;23.20;58.70
8140;BME280;4111;50.972;7.072;2023-05-07T11:20:47;101111.84;;;23.20;57.79
8140;BME280;4111;50.972;7.072;2023-05-07T11:26:03;101108.94;;;23.25;56.35
8140;BME280;4111;50.972;7.072;2023-05-07T11:28:31;101105.50;;;23.28;56.89
8140;BME280;4111;50.972;7.072;2023-05-07T11:31:02;101108.09;;;23.24;56.46
8140;BME280;4111;50.972;7.072;2023-05-07T11:33:30;101105.50;;;23.28;56.89
8140;BME280;4111;50.972;7.072;2023-05-07T11:35:57;101105.50;;;23.28;56.58
8140;BME280;4111;50.972;7.072;2023-05-07T11:38:24;101103.88;;;23.27;56.13
8140;BME280;4111;50.972;7.072;2023-05-07T11:40:59;101099.31;;;23.31;56.38
8140;BME280;4111;50.972;7.072;2023-05-07T11:43:31;101100.63;;;23.25;56.10
8140;BME280;4111;50.972;7.072;2023-05-07T11:46:09;101107.09;;;23.20;56.77
8140;BME280;4111;50.972;7.072;2023-05-07T11:48:38;101107.47;;;23.19;57.06
8140;BME280;4111;50.972;7.072;2023-05-07T11:51:06;101109.06;;;23.20;57.99
8140;BME280;4111;50.972;7.072;2023-05-07T11:53:37;101099.91;;;23.10;57.94
8140;BME280;4111;50.972;7.072;2023-05-07T11:56:08;101103.22;;;23.12;58.19
8140;BME280;4111;50.972;7.072;2023-05-07T11:58:36;101102.88;;;23.14;58.36
8140;BME280;4111;50.972;7.072;2023-05-07T12:01:03;101100.44;;;23.12;57.93
8140;BME280;4111;50.972;7.072;2023-05-07T12:03:29;101095.66;;;23.04;57.26
8140;BME280;4111;50.972;7.072;2023-05-07T12:06:01;101099.88;;;22.93;57.04
8140;BME280;4111;50.972;7.072;2023-05-07T12:08:28;101100.50;;;22.90;57.17
8140;BME280;4111;50.972;7.072;2023-05-07T12:10:54;101107.50;;;22.87;57.43
8140;BME280;4111;50.972;7.072;2023-05-07T12:13:23;101100.97;;;22.83;57.12
8140;BME280;4111;50.972;7.072;2023-05-07T12:15:54;101096.25;;;22.84;57.95
8140;BME280;4111;50.972;7.072;2023-05-07T12:18:22;101109.78;;;22.85;58.46
8140;BME280;4111;50.972;7.072;2023-05-07T12:20:49;101108.75;;;22.72;57.82
8140;BME280;4111;50.972;7.072;2023-05-07T12:23:17;101106.19;;;22.85;58.80
8140;BME280;4111;50.972;7.072;2023-05-07T12:25:43;101107.94;;;22.81;59.23
8140;BME280;4111;50.972;7.072;2023-05-07T12:28:14;101109.28;;;22.83;59.18
8140;BME280;4111;50.972;7.072;2023-05-07T12:30:46;101107.31;;;22.84;59.36
8140;BME280;4111;50.972;7.072;2023-05-07T12:33:17;101106.28;;;22.71;57.88
8140;BME280;4111;50.972;7.072;2023-05-07T12:35:47;101107.81;;;22.77;58.68
8140;BME280;4111;50.972;7.072;2023-05-07T12:38:15;101104.69;;;22.78;58.51
8140;BME280;4111;50.972;7.072;2023-05-07T12:40:47;101111.22;;;22.83;58.77
8140;BME280;4111;50.972;7.072;2023-05-07T12:43:23;101110.91;;;22.84;58.38
8140;BME280;4111;50.972;7.072;2023-05-07T12:45:51;101112.38;;;22.82;58.29
8140;BME280;4111;50.972;7.072;2023-05-07T12:48:20;101112.69;;;22.80;58.01
8140;BME280;4111;50.972;7.072;2023-05-07T12:50:51;101106.84;;;22.82;57.79
8140;BME280;4111;50.972;7.072;2023-05-07T12:53:20;101112.69;;;22.80;nan
8140;BME280;4111;50.972;7.072;2023-05-07T12:55:49;101108.44;;;22.74;57.02
8140;BME280;4111;50.972;7.072;2023-05-07T12:58:21;101115.44;;;22.71;56.66
8140;BME280;4111;50.972;7.072;2023-05-07T13:00:51;101114.78;;;22.74;57.44
8140;BME280;4111;50.972;7.072;2023-05-07T13:03:28;101114.16;;;22.77;57.58
8140;BME280;4111;50.972;7.072;2023-05-07T13:06:00;101112.84;;;22.75;58.05
8140;BME280;4111;50.972;7.072;2023-05-07T13:08:29;101111.69;;;22.76;58.65
8140;BME280;4111;50.972;7.072;2023-05-07T13:11:00;101121.31;;;22.78;58.75
8140;BME280;4111;50.972;7.072;2023-05-07T13:13:31;101113.66;;;22.75;58.56
8140;BME280;4111;50.972;7.072;2023-05-07T13:15:58;101113.97;;;22.74;58.26
8140;BME280;4111;50.972;7.072;2023-05-07T13:18:25;101116.88;;;22.69;58.05
8140;BME280;4111;50.972;7.072;2023-05-07T13:20:53;101110.38;;;22.73;58.10
8140;BME280;4111;50.972;7.072;2023-05-07T13:23:20;101120.00;;;22.76;58.22
8140;BME280;4111;50.972;7.072;2023-05-07T13:25:48;101112.19;;;22.78;57.53
8140;BME280;4111;50.972;7.072;2023-05-07T13:28:15;101108.94;;;22.85;57.45